Hauptseite
METAR-TAF:

METAR-TAF

Flughäfen :

Flughafen Aqaba

Aqaba, Jordanien

Breite: 29-38N, Länge: 035-01E, Höhe: 53 m

Beobachtung

Neuester Wetterbericht von vor 40 Minuten, um 08:00 UTC
Wind 10 kt aus Nord
Temperatur 34°C
Luftfeuchtigkeit 28%
Luftdruck 1009 hPa
Sichtweite: 8000 m

METAR: OJAQ 180800Z 35010KT 8000 NSC 34/13 Q1009 NOSIG

Zeit: 11:40 (08:40 UTC)

Prognose

Neuester Wetterbericht von vor 3 Stunden und 40 Minuten, um 05:00 UTC
Gültige Prognose vom 18 um 06 UTC bis 19 um 12 UTC
Wind 12 kt aus Nord
Sichtweite: 8000 m
Wahrscheinlichkeit 30% :
Zeitweise
vom 18 um 06 UTC bis 18 um 16 UTC
Wind 20 kt aus Nord
Sichtweite: 4000 m
Staubtreiben,

TAF: OJAQ 180500Z 1806/1912 36012KT 8000 NSC PROB30 TEMPO 1806/1816 01020KT 4000 BLDU

Wetterbeobachtungen und Prognosen von mehr als 4000 Flughäfen (METAR und TAF Bericht).

Die verfügbaren Stationen werden durch gelbe und rote Markierungen auf der Karte dargestellt.

Führen Sie die Maus auf sie, um den Namen der Station zu sehen.

Darauf klicken, um die Beobachtung von Wetterbeobachtungen und Prognosen zu sehen.

Um die Karte zu ändern : klicken Sie auf den grünen Tasten mit einem schwarzen Kreuz Zum Vergrößern, auf den grünen Button mit einem Gedankenstrich zu verkleinern, oder auf die grünen Pfeile für benachbarte Karten.


METAR-TAF: